sensor_id;sensor_type;location;lat;lon;timestamp;P1;durP1;ratioP1;P2;durP2;ratioP2
51824;SDS011;37879;52.986;6.282;2023-07-31T00:01:43;3.92;;;2.55;;
51824;SDS011;37879;52.986;6.282;2023-07-31T00:04:09;3.75;;;2.40;;
51824;SDS011;37879;52.986;6.282;2023-07-31T00:06:34;3.58;;;2.63;;
51824;SDS011;37879;52.986;6.282;2023-07-31T00:09:00;4.28;;;2.97;;
51824;SDS011;37879;52.986;6.282;2023-07-31T00:11:25;7.22;;;3.60;;
51824;SDS011;37879;52.986;6.282;2023-07-31T00:13:52;3.30;;;2.22;;
51824;SDS011;37879;52.986;6.282;2023-07-31T00:16:18;5.13;;;2.45;;
51824;SDS011;37879;52.986;6.282;2023-07-31T00:18:44;4.68;;;2.88;;
51824;SDS011;37879;52.986;6.282;2023-07-31T00:21:10;5.00;;;2.70;;
51824;SDS011;37879;52.986;6.282;2023-07-31T00:23:35;4.60;;;2.65;;
51824;SDS011;37879;52.986;6.282;2023-07-31T00:26:01;5.97;;;3.05;;
51824;SDS011;37879;52.986;6.282;2023-07-31T00:28:26;5.90;;;3.28;;
51824;SDS011;37879;52.986;6.282;2023-07-31T00:30:53;6.10;;;3.65;;
51824;SDS011;37879;52.986;6.282;2023-07-31T00:33:19;4.75;;;3.10;;
51824;SDS011;37879;52.986;6.282;2023-07-31T00:35:45;3.50;;;2.83;;
51824;SDS011;37879;52.986;6.282;2023-07-31T00:38:10;5.00;;;3.15;;
51824;SDS011;37879;52.986;6.282;2023-07-31T00:40:36;2.75;;;2.22;;
51824;SDS011;37879;52.986;6.282;2023-07-31T00:43:02;5.75;;;2.85;;
51824;SDS011;37879;52.986;6.282;2023-07-31T00:45:29;3.67;;;2.38;;
51824;SDS011;37879;52.986;6.282;2023-07-31T00:47:55;4.68;;;2.03;;
51824;SDS011;37879;52.986;6.282;2023-07-31T00:50:22;4.10;;;2.45;;
51824;SDS011;37879;52.986;6.282;2023-07-31T00:52:50;3.08;;;2.30;;
51824;SDS011;37879;52.986;6.282;2023-07-31T00:55:16;2.75;;;2.08;;
51824;SDS011;37879;52.986;6.282;2023-07-31T00:57:42;4.40;;;1.92;;
51824;SDS011;37879;52.986;6.282;2023-07-31T01:00:08;2.63;;;1.42;;
51824;SDS011;37879;52.986;6.282;2023-07-31T01:02:34;2.85;;;1.40;;
51824;SDS011;37879;52.986;6.282;2023-07-31T01:05:01;2.72;;;1.40;;
51824;SDS011;37879;52.986;6.282;2023-07-31T01:10:02;3.38;;;1.98;;
51824;SDS011;37879;52.986;6.282;2023-07-31T01:12:32;1.95;;;0.85;;
51824;SDS011;37879;52.986;6.282;2023-07-31T01:15:06;1.73;;;0.80;;
51824;SDS011;37879;52.986;6.282;2023-07-31T01:17:36;1.02;;;0.47;;
51824;SDS011;37879;52.986;6.282;2023-07-31T01:20:03;0.85;;;0.52;;
51824;SDS011;37879;52.986;6.282;2023-07-31T01:25:26;1.30;;;0.40;;
51824;SDS011;37879;52.986;6.282;2023-07-31T01:28:13;1.30;;;0.45;;
51824;SDS011;37879;52.986;6.282;2023-07-31T01:30:44;1.15;;;0.40;;
51824;SDS011;37879;52.986;6.282;2023-07-31T01:33:13;1.05;;;0.22;;
51824;SDS011;37879;52.986;6.282;2023-07-31T01:35:42;1.55;;;0.50;;
51824;SDS011;37879;52.986;6.282;2023-07-31T01:38:10;1.50;;;0.90;;
51824;SDS011;37879;52.986;6.282;2023-07-31T01:40:36;1.65;;;0.45;;
51824;SDS011;37879;52.986;6.282;2023-07-31T01:43:01;1.60;;;0.35;;
51824;SDS011;37879;52.986;6.282;2023-07-31T01:45:27;1.80;;;0.50;;
51824;SDS011;37879;52.986;6.282;2023-07-31T01:47:53;0.80;;;0.50;;
51824;SDS011;37879;52.986;6.282;2023-07-31T01:50:18;1.00;;;0.35;;
51824;SDS011;37879;52.986;6.282;2023-07-31T01:52:44;1.48;;;0.35;;
51824;SDS011;37879;52.986;6.282;2023-07-31T01:55:09;0.70;;;0.32;;
51824;SDS011;37879;52.986;6.282;2023-07-31T01:57:36;0.68;;;0.20;;
51824;SDS011;37879;52.986;6.282;2023-07-31T02:00:02;1.48;;;0.55;;
51824;SDS011;37879;52.986;6.282;2023-07-31T02:02:28;2.45;;;0.47;;
51824;SDS011;37879;52.986;6.282;2023-07-31T02:04:54;0.47;;;0.20;;
51824;SDS011;37879;52.986;6.282;2023-07-31T02:07:19;0.82;;;0.35;;
51824;SDS011;37879;52.986;6.282;2023-07-31T02:09:45;0.73;;;0.30;;
51824;SDS011;37879;52.986;6.282;2023-07-31T02:12:12;1.38;;;0.20;;
51824;SDS011;37879;52.986;6.282;2023-07-31T02:14:39;3.17;;;0.40;;
51824;SDS011;37879;52.986;6.282;2023-07-31T02:17:05;1.52;;;0.40;;
51824;SDS011;37879;52.986;6.282;2023-07-31T02:19:31;0.82;;;0.30;;
51824;SDS011;37879;52.986;6.282;2023-07-31T02:21:57;1.05;;;0.20;;
51824;SDS011;37879;52.986;6.282;2023-07-31T02:24:23;2.15;;;0.30;;
51824;SDS011;37879;52.986;6.282;2023-07-31T02:26:50;0.50;;;0.20;;
51824;SDS011;37879;52.986;6.282;2023-07-31T02:29:15;0.68;;;0.20;;
51824;SDS011;37879;52.986;6.282;2023-07-31T02:31:41;0.95;;;0.30;;
51824;SDS011;37879;52.986;6.282;2023-07-31T02:34:07;0.70;;;0.22;;
51824;SDS011;37879;52.986;6.282;2023-07-31T02:36:32;2.88;;;0.60;;
51824;SDS011;37879;52.986;6.282;2023-07-31T02:38:58;0.32;;;0.20;;
51824;SDS011;37879;52.986;6.282;2023-07-31T02:41:23;1.20;;;0.50;;
51824;SDS011;37879;52.986;6.282;2023-07-31T02:43:49;0.50;;;0.20;;
51824;SDS011;37879;52.986;6.282;2023-07-31T02:46:15;1.33;;;0.50;;
51824;SDS011;37879;52.986;6.282;2023-07-31T02:48:40;0.82;;;0.40;;
51824;SDS011;37879;52.986;6.282;2023-07-31T02:51:06;1.45;;;0.93;;
51824;SDS011;37879;52.986;6.282;2023-07-31T02:53:31;0.73;;;0.30;;
51824;SDS011;37879;52.986;6.282;2023-07-31T02:55:57;1.10;;;0.43;;
51824;SDS011;37879;52.986;6.282;2023-07-31T02:58:23;1.70;;;0.43;;
51824;SDS011;37879;52.986;6.282;2023-07-31T03:00:48;1.15;;;0.47;;
51824;SDS011;37879;52.986;6.282;2023-07-31T03:03:14;1.50;;;0.63;;
51824;SDS011;37879;52.986;6.282;2023-07-31T03:05:40;1.17;;;0.40;;
51824;SDS011;37879;52.986;6.282;2023-07-31T03:08:05;1.38;;;0.65;;
51824;SDS011;37879;52.986;6.282;2023-07-31T03:10:31;1.60;;;0.60;;
51824;SDS011;37879;52.986;6.282;2023-07-31T03:12:56;0.70;;;0.40;;
51824;SDS011;37879;52.986;6.282;2023-07-31T03:15:22;2.97;;;1.00;;
51824;SDS011;37879;52.986;6.282;2023-07-31T03:17:48;0.93;;;0.43;;
51824;SDS011;37879;52.986;6.282;2023-07-31T03:20:13;1.58;;;0.50;;
51824;SDS011;37879;52.986;6.282;2023-07-31T03:22:39;1.27;;;0.50;;
51824;SDS011;37879;52.986;6.282;2023-07-31T03:25:05;0.93;;;0.40;;
51824;SDS011;37879;52.986;6.282;2023-07-31T03:27:31;0.90;;;0.35;;
51824;SDS011;37879;52.986;6.282;2023-07-31T03:29:57;2.03;;;0.50;;
51824;SDS011;37879;52.986;6.282;2023-07-31T03:32:22;1.77;;;0.55;;
51824;SDS011;37879;52.986;6.282;2023-07-31T03:34:49;2.42;;;0.75;;
51824;SDS011;37879;52.986;6.282;2023-07-31T03:37:14;1.90;;;0.40;;
51824;SDS011;37879;52.986;6.282;2023-07-31T03:39:40;1.10;;;0.40;;
51824;SDS011;37879;52.986;6.282;2023-07-31T03:42:06;3.60;;;1.00;;
51824;SDS011;37879;52.986;6.282;2023-07-31T03:44:31;1.13;;;0.50;;
51824;SDS011;37879;52.986;6.282;2023-07-31T03:46:57;1.38;;;0.60;;
51824;SDS011;37879;52.986;6.282;2023-07-31T03:49:22;4.40;;;0.88;;
51824;SDS011;37879;52.986;6.282;2023-07-31T03:51:49;3.33;;;0.55;;
51824;SDS011;37879;52.986;6.282;2023-07-31T03:54:15;4.07;;;0.75;;
51824;SDS011;37879;52.986;6.282;2023-07-31T03:56:40;2.10;;;0.63;;
51824;SDS011;37879;52.986;6.282;2023-07-31T03:59:06;1.90;;;0.57;;
51824;SDS011;37879;52.986;6.282;2023-07-31T04:01:32;2.17;;;1.15;;
51824;SDS011;37879;52.986;6.282;2023-07-31T04:03:57;2.35;;;0.45;;
51824;SDS011;37879;52.986;6.282;2023-07-31T04:06:23;5.32;;;0.77;;
51824;SDS011;37879;52.986;6.282;2023-07-31T04:08:49;4.68;;;0.73;;
51824;SDS011;37879;52.986;6.282;2023-07-31T04:11:14;2.88;;;0.88;;
51824;SDS011;37879;52.986;6.282;2023-07-31T04:13:40;1.30;;;0.43;;
51824;SDS011;37879;52.986;6.282;2023-07-31T04:16:06;3.45;;;0.80;;
51824;SDS011;37879;52.986;6.282;2023-07-31T04:18:31;1.45;;;0.85;;
51824;SDS011;37879;52.986;6.282;2023-07-31T04:20:57;4.05;;;1.02;;
51824;SDS011;37879;52.986;6.282;2023-07-31T04:23:24;3.58;;;0.68;;
51824;SDS011;37879;52.986;6.282;2023-07-31T04:25:50;1.17;;;0.60;;
51824;SDS011;37879;52.986;6.282;2023-07-31T04:28:16;1.00;;;0.57;;
51824;SDS011;37879;52.986;6.282;2023-07-31T04:30:41;2.00;;;0.73;;
51824;SDS011;37879;52.986;6.282;2023-07-31T04:33:07;1.52;;;0.80;;
51824;SDS011;37879;52.986;6.282;2023-07-31T04:35:33;1.98;;;0.80;;
51824;SDS011;37879;52.986;6.282;2023-07-31T04:37:59;2.22;;;0.85;;
51824;SDS011;37879;52.986;6.282;2023-07-31T04:40:24;1.05;;;0.50;;
51824;SDS011;37879;52.986;6.282;2023-07-31T04:42:50;2.00;;;0.77;;
51824;SDS011;37879;52.986;6.282;2023-07-31T04:45:16;1.48;;;0.50;;
51824;SDS011;37879;52.986;6.282;2023-07-31T04:47:42;3.70;;;0.90;;
51824;SDS011;37879;52.986;6.282;2023-07-31T04:50:07;3.35;;;0.38;;
51824;SDS011;37879;52.986;6.282;2023-07-31T04:52:33;1.45;;;0.70;;
51824;SDS011;37879;52.986;6.282;2023-07-31T04:54:59;2.90;;;1.50;;
51824;SDS011;37879;52.986;6.282;2023-07-31T04:57:25;3.05;;;1.20;;
51824;SDS011;37879;52.986;6.282;2023-07-31T04:59:50;3.38;;;1.25;;
51824;SDS011;37879;52.986;6.282;2023-07-31T05:02:16;5.75;;;1.27;;
51824;SDS011;37879;52.986;6.282;2023-07-31T05:04:42;3.85;;;1.35;;
51824;SDS011;37879;52.986;6.282;2023-07-31T05:07:07;3.20;;;0.98;;
51824;SDS011;37879;52.986;6.282;2023-07-31T05:09:33;5.00;;;2.17;;
51824;SDS011;37879;52.986;6.282;2023-07-31T05:11:59;4.45;;;1.88;;
51824;SDS011;37879;52.986;6.282;2023-07-31T05:14:25;3.65;;;1.80;;
51824;SDS011;37879;52.986;6.282;2023-07-31T05:16:51;4.13;;;1.92;;
51824;SDS011;37879;52.986;6.282;2023-07-31T05:19:17;7.35;;;1.92;;
51824;SDS011;37879;52.986;6.282;2023-07-31T05:21:43;6.20;;;2.47;;
51824;SDS011;37879;52.986;6.282;2023-07-31T05:24:09;8.02;;;3.17;;
51824;SDS011;37879;52.986;6.282;2023-07-31T05:26:35;10.80;;;3.53;;
51824;SDS011;37879;52.986;6.282;2023-07-31T05:29:01;14.15;;;4.97;;
51824;SDS011;37879;52.986;6.282;2023-07-31T05:31:27;15.90;;;5.22;;
51824;SDS011;37879;52.986;6.282;2023-07-31T05:33:53;13.60;;;6.03;;
51824;SDS011;37879;52.986;6.282;2023-07-31T05:36:18;13.57;;;5.50;;
51824;SDS011;37879;52.986;6.282;2023-07-31T05:38:44;18.58;;;6.68;;
51824;SDS011;37879;52.986;6.282;2023-07-31T05:41:11;14.88;;;5.72;;
51824;SDS011;37879;52.986;6.282;2023-07-31T05:43:37;18.90;;;6.88;;
51824;SDS011;37879;52.986;6.282;2023-07-31T05:46:03;18.02;;;6.63;;
51824;SDS011;37879;52.986;6.282;2023-07-31T05:48:29;24.73;;;7.72;;
51824;SDS011;37879;52.986;6.282;2023-07-31T05:50:54;14.40;;;5.35;;
51824;SDS011;37879;52.986;6.282;2023-07-31T05:53:20;20.13;;;7.03;;
51824;SDS011;37879;52.986;6.282;2023-07-31T05:55:46;17.67;;;6.65;;
51824;SDS011;37879;52.986;6.282;2023-07-31T05:58:11;19.60;;;6.53;;
51824;SDS011;37879;52.986;6.282;2023-07-31T06:00:37;15.05;;;6.40;;
51824;SDS011;37879;52.986;6.282;2023-07-31T06:03:02;16.23;;;5.90;;
51824;SDS011;37879;52.986;6.282;2023-07-31T06:05:29;13.80;;;5.93;;
51824;SDS011;37879;52.986;6.282;2023-07-31T06:07:55;16.70;;;5.70;;
51824;SDS011;37879;52.986;6.282;2023-07-31T06:10:22;15.35;;;6.10;;
51824;SDS011;37879;52.986;6.282;2023-07-31T06:12:48;16.20;;;6.05;;
51824;SDS011;37879;52.986;6.282;2023-07-31T06:15:13;13.57;;;5.32;;
51824;SDS011;37879;52.986;6.282;2023-07-31T06:17:39;29.33;;;7.60;;
51824;SDS011;37879;52.986;6.282;2023-07-31T06:20:06;15.57;;;5.00;;
51824;SDS011;37879;52.986;6.282;2023-07-31T06:22:32;13.98;;;4.80;;
51824;SDS011;37879;52.986;6.282;2023-07-31T06:24:58;15.15;;;5.57;;
51824;SDS011;37879;52.986;6.282;2023-07-31T06:27:23;15.88;;;5.28;;
51824;SDS011;37879;52.986;6.282;2023-07-31T06:29:49;14.50;;;5.60;;
51824;SDS011;37879;52.986;6.282;2023-07-31T06:32:15;13.40;;;5.28;;
51824;SDS011;37879;52.986;6.282;2023-07-31T06:34:40;14.90;;;5.60;;
51824;SDS011;37879;52.986;6.282;2023-07-31T06:37:06;13.93;;;5.25;;
51824;SDS011;37879;52.986;6.282;2023-07-31T06:39:32;10.85;;;4.78;;
51824;SDS011;37879;52.986;6.282;2023-07-31T06:41:57;17.20;;;6.95;;
51824;SDS011;37879;52.986;6.282;2023-07-31T06:44:23;12.05;;;4.13;;
51824;SDS011;37879;52.986;6.282;2023-07-31T06:46:49;14.65;;;6.20;;
51824;SDS011;37879;52.986;6.282;2023-07-31T06:49:14;15.52;;;5.10;;
51824;SDS011;37879;52.986;6.282;2023-07-31T06:51:40;10.98;;;5.45;;
51824;SDS011;37879;52.986;6.282;2023-07-31T06:54:07;13.48;;;4.65;;
51824;SDS011;37879;52.986;6.282;2023-07-31T06:56:33;12.43;;;5.15;;
51824;SDS011;37879;52.986;6.282;2023-07-31T06:58:59;10.40;;;4.18;;
51824;SDS011;37879;52.986;6.282;2023-07-31T07:01:24;10.75;;;3.80;;
51824;SDS011;37879;52.986;6.282;2023-07-31T07:03:50;13.13;;;4.57;;
51824;SDS011;37879;52.986;6.282;2023-07-31T07:06:16;8.43;;;3.28;;
51824;SDS011;37879;52.986;6.282;2023-07-31T07:08:43;10.05;;;3.40;;
51824;SDS011;37879;52.986;6.282;2023-07-31T07:11:08;6.90;;;2.90;;
51824;SDS011;37879;52.986;6.282;2023-07-31T07:13:34;7.03;;;3.75;;
51824;SDS011;37879;52.986;6.282;2023-07-31T07:16:00;5.78;;;2.58;;
51824;SDS011;37879;52.986;6.282;2023-07-31T07:18:25;5.40;;;2.50;;
51824;SDS011;37879;52.986;6.282;2023-07-31T07:20:51;5.80;;;2.30;;
51824;SDS011;37879;52.986;6.282;2023-07-31T07:23:18;6.55;;;1.85;;
51824;SDS011;37879;52.986;6.282;2023-07-31T07:25:45;2.75;;;1.40;;
51824;SDS011;37879;52.986;6.282;2023-07-31T07:28:11;5.78;;;1.75;;
51824;SDS011;37879;52.986;6.282;2023-07-31T07:30:37;4.07;;;1.92;;
51824;SDS011;37879;52.986;6.282;2023-07-31T07:33:03;3.80;;;1.77;;
51824;SDS011;37879;52.986;6.282;2023-07-31T07:35:29;3.13;;;1.30;;
51824;SDS011;37879;52.986;6.282;2023-07-31T07:37:54;2.60;;;1.60;;
51824;SDS011;37879;52.986;6.282;2023-07-31T07:40:20;2.70;;;1.15;;
51824;SDS011;37879;52.986;6.282;2023-07-31T07:42:46;4.22;;;1.73;;
51824;SDS011;37879;52.986;6.282;2023-07-31T07:45:12;3.30;;;1.20;;
51824;SDS011;37879;52.986;6.282;2023-07-31T07:47:40;3.10;;;1.35;;
51824;SDS011;37879;52.986;6.282;2023-07-31T07:50:06;3.22;;;1.27;;
51824;SDS011;37879;52.986;6.282;2023-07-31T07:52:32;3.05;;;1.40;;
51824;SDS011;37879;52.986;6.282;2023-07-31T07:54:57;1.88;;;0.88;;
51824;SDS011;37879;52.986;6.282;2023-07-31T07:57:23;2.95;;;1.15;;
51824;SDS011;37879;52.986;6.282;2023-07-31T07:59:49;1.88;;;0.80;;
51824;SDS011;37879;52.986;6.282;2023-07-31T08:02:14;2.58;;;1.58;;
51824;SDS011;37879;52.986;6.282;2023-07-31T08:04:40;1.75;;;0.93;;
51824;SDS011;37879;52.986;6.282;2023-07-31T08:07:06;3.17;;;1.00;;
51824;SDS011;37879;52.986;6.282;2023-07-31T08:09:31;1.38;;;0.68;;
51824;SDS011;37879;52.986;6.282;2023-07-31T08:11:57;2.03;;;0.70;;
51824;SDS011;37879;52.986;6.282;2023-07-31T08:14:27;1.77;;;0.73;;
51824;SDS011;37879;52.986;6.282;2023-07-31T08:16:53;1.92;;;0.68;;
51824;SDS011;37879;52.986;6.282;2023-07-31T08:19:18;1.33;;;0.60;;
51824;SDS011;37879;52.986;6.282;2023-07-31T08:21:44;2.33;;;0.80;;
51824;SDS011;37879;52.986;6.282;2023-07-31T08:24:10;1.30;;;0.70;;
51824;SDS011;37879;52.986;6.282;2023-07-31T08:26:35;1.10;;;0.60;;
51824;SDS011;37879;52.986;6.282;2023-07-31T08:29:01;1.10;;;0.50;;
51824;SDS011;37879;52.986;6.282;2023-07-31T08:31:27;1.05;;;0.60;;
51824;SDS011;37879;52.986;6.282;2023-07-31T08:33:54;2.58;;;0.68;;
51824;SDS011;37879;52.986;6.282;2023-07-31T08:36:20;1.52;;;0.70;;
51824;SDS011;37879;52.986;6.282;2023-07-31T08:38:46;1.02;;;0.52;;
51824;SDS011;37879;52.986;6.282;2023-07-31T08:41:12;2.40;;;1.08;;
51824;SDS011;37879;52.986;6.282;2023-07-31T08:43:38;0.73;;;0.30;;
51824;SDS011;37879;52.986;6.282;2023-07-31T08:46:04;0.70;;;0.40;;
51824;SDS011;37879;52.986;6.282;2023-07-31T08:48:30;1.40;;;0.57;;
51824;SDS011;37879;52.986;6.282;2023-07-31T08:50:56;0.52;;;0.35;;
51824;SDS011;37879;52.986;6.282;2023-07-31T08:53:22;0.75;;;0.35;;
51824;SDS011;37879;52.986;6.282;2023-07-31T08:55:49;0.80;;;0.40;;
51824;SDS011;37879;52.986;6.282;2023-07-31T08:58:17;2.10;;;0.60;;
51824;SDS011;37879;52.986;6.282;2023-07-31T09:00:44;1.90;;;0.77;;
51824;SDS011;37879;52.986;6.282;2023-07-31T09:03:15;0.98;;;0.30;;
51824;SDS011;37879;52.986;6.282;2023-07-31T09:05:43;0.60;;;0.35;;
51824;SDS011;37879;52.986;6.282;2023-07-31T09:08:11;0.60;;;0.35;;
51824;SDS011;37879;52.986;6.282;2023-07-31T09:10:44;0.80;;;0.30;;
51824;SDS011;37879;52.986;6.282;2023-07-31T09:13:11;0.40;;;0.20;;
51824;SDS011;37879;52.986;6.282;2023-07-31T09:15:37;0.95;;;0.30;;
51824;SDS011;37879;52.986;6.282;2023-07-31T09:18:05;0.28;;;0.15;;
51824;SDS011;37879;52.986;6.282;2023-07-31T09:20:33;0.65;;;0.20;;
51824;SDS011;37879;52.986;6.282;2023-07-31T09:23:06;0.98;;;0.43;;
51824;SDS011;37879;52.986;6.282;2023-07-31T09:25:36;1.05;;;0.22;;
51824;SDS011;37879;52.986;6.282;2023-07-31T09:28:03;0.70;;;0.20;;
51824;SDS011;37879;52.986;6.282;2023-07-31T09:30:30;0.57;;;0.35;;
51824;SDS011;37879;52.986;6.282;2023-07-31T09:33:03;1.17;;;0.20;;
51824;SDS011;37879;52.986;6.282;2023-07-31T09:35:32;0.10;;;0.03;;
51824;SDS011;37879;52.986;6.282;2023-07-31T09:38:00;0.73;;;0.10;;
51824;SDS011;37879;52.986;6.282;2023-07-31T09:40:33;0.43;;;0.13;;
51824;SDS011;37879;52.986;6.282;2023-07-31T09:43:01;0.57;;;0.10;;
51824;SDS011;37879;52.986;6.282;2023-07-31T09:45:28;0.38;;;0.20;;
51824;SDS011;37879;52.986;6.282;2023-07-31T09:47:54;0.85;;;0.20;;
51824;SDS011;37879;52.986;6.282;2023-07-31T09:50:22;0.40;;;0.10;;
51824;SDS011;37879;52.986;6.282;2023-07-31T09:52:49;0.55;;;0.20;;
51824;SDS011;37879;52.986;6.282;2023-07-31T09:55:15;0.10;;;0.05;;
51824;SDS011;37879;52.986;6.282;2023-07-31T09:57:43;0.38;;;0.20;;
51824;SDS011;37879;52.986;6.282;2023-07-31T10:00:11;2.40;;;0.20;;
51824;SDS011;37879;52.986;6.282;2023-07-31T10:02:38;0.68;;;0.10;;
51824;SDS011;37879;52.986;6.282;2023-07-31T10:05:05;0.30;;;0.10;;
51824;SDS011;37879;52.986;6.282;2023-07-31T10:07:34;0.20;;;0.00;;
51824;SDS011;37879;52.986;6.282;2023-07-31T10:10:07;0.40;;;0.10;;
51824;SDS011;37879;52.986;6.282;2023-07-31T10:12:36;0.50;;;0.20;;
51824;SDS011;37879;52.986;6.282;2023-07-31T10:15:03;0.10;;;0.00;;
51824;SDS011;37879;52.986;6.282;2023-07-31T10:17:29;0.95;;;0.17;;
51824;SDS011;37879;52.986;6.282;2023-07-31T10:19:58;0.63;;;0.10;;
51824;SDS011;37879;52.986;6.282;2023-07-31T10:22:26;0.40;;;0.20;;
51824;SDS011;37879;52.986;6.282;2023-07-31T10:24:52;0.45;;;0.20;;
51824;SDS011;37879;52.986;6.282;2023-07-31T10:27:20;0.77;;;0.30;;
51824;SDS011;37879;52.986;6.282;2023-07-31T10:29:45;0.90;;;0.60;;
51824;SDS011;37879;52.986;6.282;2023-07-31T10:32:13;0.50;;;0.20;;
51824;SDS011;37879;52.986;6.282;2023-07-31T10:34:40;1.95;;;0.47;;
51824;SDS011;37879;52.986;6.282;2023-07-31T10:37:20;1.85;;;0.35;;
51824;SDS011;37879;52.986;6.282;2023-07-31T10:40:01;1.23;;;0.30;;
51824;SDS011;37879;52.986;6.282;2023-07-31T10:44:58;1.13;;;0.30;;
51824;SDS011;37879;52.986;6.282;2023-07-31T10:47:24;1.67;;;0.45;;
51824;SDS011;37879;52.986;6.282;2023-07-31T10:49:50;2.05;;;0.70;;
51824;SDS011;37879;52.986;6.282;2023-07-31T10:52:19;1.80;;;0.65;;
51824;SDS011;37879;52.986;6.282;2023-07-31T10:54:49;3.10;;;0.80;;
51824;SDS011;37879;52.986;6.282;2023-07-31T10:57:19;2.00;;;0.77;;
51824;SDS011;37879;52.986;6.282;2023-07-31T10:59:46;3.42;;;0.90;;
51824;SDS011;37879;52.986;6.282;2023-07-31T11:02:23;2.15;;;0.70;;
51824;SDS011;37879;52.986;6.282;2023-07-31T11:05:05;2.78;;;1.35;;
51824;SDS011;37879;52.986;6.282;2023-07-31T11:07:48;1.70;;;1.15;;
51824;SDS011;37879;52.986;6.282;2023-07-31T11:10:17;1.65;;;0.50;;
51824;SDS011;37879;52.986;6.282;2023-07-31T11:12:45;0.95;;;0.40;;
51824;SDS011;37879;52.986;6.282;2023-07-31T11:15:11;0.65;;;0.22;;
51824;SDS011;37879;52.986;6.282;2023-07-31T11:17:40;0.75;;;0.20;;
51824;SDS011;37879;52.986;6.282;2023-07-31T11:20:06;0.98;;;0.25;;
51824;SDS011;37879;52.986;6.282;2023-07-31T11:22:34;1.27;;;0.20;;
51824;SDS011;37879;52.986;6.282;2023-07-31T11:25:02;1.80;;;0.20;;
51824;SDS011;37879;52.986;6.282;2023-07-31T11:27:29;0.28;;;0.10;;
51824;SDS011;37879;52.986;6.282;2023-07-31T11:30:01;1.17;;;0.10;;
51824;SDS011;37879;52.986;6.282;2023-07-31T11:32:27;0.38;;;0.10;;
51824;SDS011;37879;52.986;6.282;2023-07-31T11:34:53;0.75;;;0.10;;
51824;SDS011;37879;52.986;6.282;2023-07-31T11:37:19;2.75;;;0.20;;
51824;SDS011;37879;52.986;6.282;2023-07-31T11:39:58;0.25;;;0.10;;
51824;SDS011;37879;52.986;6.282;2023-07-31T11:42:27;0.75;;;0.20;;
51824;SDS011;37879;52.986;6.282;2023-07-31T11:44:52;0.47;;;0.22;;
51824;SDS011;37879;52.986;6.282;2023-07-31T11:47:18;29.65;;;1.35;;
51824;SDS011;37879;52.986;6.282;2023-07-31T11:49:45;1.10;;;0.20;;
51824;SDS011;37879;52.986;6.282;2023-07-31T11:52:10;0.82;;;0.35;;
51824;SDS011;37879;52.986;6.282;2023-07-31T11:54:37;0.75;;;0.30;;
51824;SDS011;37879;52.986;6.282;2023-07-31T11:57:03;1.10;;;0.45;;
51824;SDS011;37879;52.986;6.282;2023-07-31T11:59:30;1.58;;;0.30;;
51824;SDS011;37879;52.986;6.282;2023-07-31T12:01:56;0.60;;;0.40;;
51824;SDS011;37879;52.986;6.282;2023-07-31T12:04:23;0.80;;;0.50;;
51824;SDS011;37879;52.986;6.282;2023-07-31T12:06:49;1.50;;;0.68;;
51824;SDS011;37879;52.986;6.282;2023-07-31T12:09:18;2.15;;;0.73;;
51824;SDS011;37879;52.986;6.282;2023-07-31T12:11:44;0.93;;;0.70;;
51824;SDS011;37879;52.986;6.282;2023-07-31T12:14:20;1.67;;;0.85;;
51824;SDS011;37879;52.986;6.282;2023-07-31T12:16:54;2.17;;;0.68;;
51824;SDS011;37879;52.986;6.282;2023-07-31T12:19:21;2.28;;;0.95;;
51824;SDS011;37879;52.986;6.282;2023-07-31T12:21:47;2.67;;;1.02;;
51824;SDS011;37879;52.986;6.282;2023-07-31T12:24:13;1.95;;;0.80;;
51824;SDS011;37879;52.986;6.282;2023-07-31T12:26:38;1.45;;;0.90;;
51824;SDS011;37879;52.986;6.282;2023-07-31T12:29:05;2.05;;;0.90;;
51824;SDS011;37879;52.986;6.282;2023-07-31T12:31:33;2.63;;;0.85;;
51824;SDS011;37879;52.986;6.282;2023-07-31T12:33:59;3.22;;;0.82;;
51824;SDS011;37879;52.986;6.282;2023-07-31T12:36:24;3.20;;;0.85;;
51824;SDS011;37879;52.986;6.282;2023-07-31T12:38:51;2.05;;;0.57;;
51824;SDS011;37879;52.986;6.282;2023-07-31T12:41:17;3.70;;;1.02;;
51824;SDS011;37879;52.986;6.282;2023-07-31T12:43:43;2.10;;;0.75;;
51824;SDS011;37879;52.986;6.282;2023-07-31T12:46:10;4.95;;;1.70;;
51824;SDS011;37879;52.986;6.282;2023-07-31T12:48:37;3.08;;;1.73;;
51824;SDS011;37879;52.986;6.282;2023-07-31T12:51:03;3.05;;;1.67;;
51824;SDS011;37879;52.986;6.282;2023-07-31T12:53:29;4.40;;;1.88;;
51824;SDS011;37879;52.986;6.282;2023-07-31T12:55:55;3.67;;;1.60;;
51824;SDS011;37879;52.986;6.282;2023-07-31T12:58:21;5.60;;;1.83;;
51824;SDS011;37879;52.986;6.282;2023-07-31T13:00:47;4.63;;;2.10;;
51824;SDS011;37879;52.986;6.282;2023-07-31T13:03:13;6.43;;;2.10;;
51824;SDS011;37879;52.986;6.282;2023-07-31T13:05:39;5.70;;;3.00;;
51824;SDS011;37879;52.986;6.282;2023-07-31T13:08:04;4.22;;;1.88;;
51824;SDS011;37879;52.986;6.282;2023-07-31T13:10:30;5.15;;;2.55;;
51824;SDS011;37879;52.986;6.282;2023-07-31T13:12:56;6.43;;;2.38;;
51824;SDS011;37879;52.986;6.282;2023-07-31T13:15:22;6.70;;;3.05;;
51824;SDS011;37879;52.986;6.282;2023-07-31T13:17:48;5.15;;;2.00;;
51824;SDS011;37879;52.986;6.282;2023-07-31T13:20:13;5.55;;;2.28;;
51824;SDS011;37879;52.986;6.282;2023-07-31T13:22:39;6.43;;;1.92;;
51824;SDS011;37879;52.986;6.282;2023-07-31T13:25:05;6.85;;;2.40;;
51824;SDS011;37879;52.986;6.282;2023-07-31T13:27:31;4.93;;;1.90;;
51824;SDS011;37879;52.986;6.282;2023-07-31T13:29:57;3.90;;;2.10;;
51824;SDS011;37879;52.986;6.282;2023-07-31T13:32:23;2.65;;;1.80;;
51824;SDS011;37879;52.986;6.282;2023-07-31T13:34:49;4.43;;;2.08;;
51824;SDS011;37879;52.986;6.282;2023-07-31T13:37:15;4.78;;;2.10;;
51824;SDS011;37879;52.986;6.282;2023-07-31T13:39:41;5.82;;;2.50;;
51824;SDS011;37879;52.986;6.282;2023-07-31T13:42:07;5.93;;;2.03;;
51824;SDS011;37879;52.986;6.282;2023-07-31T13:44:37;4.10;;;2.05;;
51824;SDS011;37879;52.986;6.282;2023-07-31T13:47:06;8.00;;;2.67;;
51824;SDS011;37879;52.986;6.282;2023-07-31T13:49:33;4.22;;;2.35;;
51824;SDS011;37879;52.986;6.282;2023-07-31T13:51:59;6.22;;;2.40;;
51824;SDS011;37879;52.986;6.282;2023-07-31T13:54:25;7.65;;;3.42;;
51824;SDS011;37879;52.986;6.282;2023-07-31T13:56:51;7.88;;;2.90;;
51824;SDS011;37879;52.986;6.282;2023-07-31T13:59:19;10.30;;;3.10;;
51824;SDS011;37879;52.986;6.282;2023-07-31T14:01:46;6.68;;;2.58;;
51824;SDS011;37879;52.986;6.282;2023-07-31T14:04:11;6.97;;;2.63;;
51824;SDS011;37879;52.986;6.282;2023-07-31T14:06:37;5.25;;;2.55;;
51824;SDS011;37879;52.986;6.282;2023-07-31T14:09:03;5.00;;;2.40;;
51824;SDS011;37879;52.986;6.282;2023-07-31T14:11:30;8.15;;;3.00;;
51824;SDS011;37879;52.986;6.282;2023-07-31T14:13:56;7.03;;;2.80;;
51824;SDS011;37879;52.986;6.282;2023-07-31T14:16:22;4.35;;;2.60;;
51824;SDS011;37879;52.986;6.282;2023-07-31T14:18:48;11.80;;;3.80;;
51824;SDS011;37879;52.986;6.282;2023-07-31T14:21:14;4.95;;;2.33;;
51824;SDS011;37879;52.986;6.282;2023-07-31T14:23:40;9.73;;;3.45;;
51824;SDS011;37879;52.986;6.282;2023-07-31T14:26:06;5.43;;;2.65;;
51824;SDS011;37879;52.986;6.282;2023-07-31T14:28:32;5.68;;;2.92;;
51824;SDS011;37879;52.986;6.282;2023-07-31T14:30:57;7.15;;;2.60;;
51824;SDS011;37879;52.986;6.282;2023-07-31T14:33:23;6.95;;;2.55;;
51824;SDS011;37879;52.986;6.282;2023-07-31T14:35:49;6.97;;;2.90;;
51824;SDS011;37879;52.986;6.282;2023-07-31T14:38:14;7.07;;;2.63;;
51824;SDS011;37879;52.986;6.282;2023-07-31T14:40:41;7.18;;;2.75;;
51824;SDS011;37879;52.986;6.282;2023-07-31T14:43:07;8.00;;;2.65;;
51824;SDS011;37879;52.986;6.282;2023-07-31T14:45:33;9.02;;;3.17;;
51824;SDS011;37879;52.986;6.282;2023-07-31T14:47:58;5.93;;;2.75;;
51824;SDS011;37879;52.986;6.282;2023-07-31T14:50:25;6.38;;;2.60;;